Map

Track Data

SID SEASON NUMBER BASIN SUBBASIN NAME ISO_TIME NATURE LAT LON WMO_WIND WMO_PRES WMO_AGENCY TRACK_TYPE DIST2LAND LANDFALL IFLAG USA_AGENCY USA_ATCF_ID USA_LAT USA_LON USA_RECORD USA_STATUS USA_WIND USA_PRES USA_SSHS USA_R34_NE USA_R34_SE USA_R34_SW USA_R34_NW USA_R50_NE USA_R50_SE USA_R50_SW USA_R50_NW USA_R64_NE USA_R64_SE USA_R64_SW USA_R64_NW USA_POCI USA_ROCI USA_RMW USA_EYE TOKYO_LAT TOKYO_LON TOKYO_GRADE TOKYO_WIND TOKYO_PRES TOKYO_R50_DIR TOKYO_R50_LONG TOKYO_R50_SHORT TOKYO_R30_DIR TOKYO_R30_LONG TOKYO_R30_SHORT TOKYO_LAND CMA_LAT CMA_LON CMA_CAT CMA_WIND CMA_PRES HKO_LAT HKO_LON HKO_CAT HKO_WIND HKO_PRES NEWDELHI_LAT NEWDELHI_LON NEWDELHI_GRADE NEWDELHI_WIND NEWDELHI_PRES NEWDELHI_CI NEWDELHI_DP NEWDELHI_POCI REUNION_LAT REUNION_LON REUNION_TYPE REUNION_WIND REUNION_PRES REUNION_TNUM REUNION_CI REUNION_RMW REUNION_R34_NE REUNION_R34_SE REUNION_R34_SW REUNION_R34_NW REUNION_R50_NE REUNION_R50_SE REUNION_R50_SW REUNION_R50_NW REUNION_R64_NE REUNION_R64_SE REUNION_R64_SW REUNION_R64_NW BOM_LAT BOM_LON BOM_TYPE BOM_WIND BOM_PRES BOM_TNUM BOM_CI BOM_RMW BOM_R34_NE BOM_R34_SE BOM_R34_SW BOM_R34_NW BOM_R50_NE BOM_R50_SE BOM_R50_SW BOM_R50_NW BOM_R64_NE BOM_R64_SE BOM_R64_SW BOM_R64_NW BOM_ROCI BOM_POCI BOM_EYE BOM_POS_METHOD BOM_PRES_METHOD NADI_LAT NADI_LON NADI_CAT NADI_WIND NADI_PRES WELLINGTON_LAT WELLINGTON_LON WELLINGTON_WIND WELLINGTON_PRES DS824_LAT DS824_LON DS824_STAGE DS824_WIND DS824_PRES TD9636_LAT TD9636_LON TD9636_STAGE TD9636_WIND TD9636_PRES TD9635_LAT TD9635_LON TD9635_WIND TD9635_PRES TD9635_ROCI NEUMANN_LAT NEUMANN_LON NEUMANN_CLASS NEUMANN_WIND NEUMANN_PRES MLC_LAT MLC_LON MLC_CLASS MLC_WIND MLC_PRES USA_GUST BOM_GUST BOM_GUST_PER REUNION_GUST REUNION_GUST_PER USA_SEAHGT USA_SEARAD_NE USA_SEARAD_SE USA_SEARAD_SW USA_SEARAD_NW STORM_SPEED STORM_DIR
1967216N20343 1967 65 NA NA NOT_NAMED 1967-08-03 12:00:00 TS 19.5000 -17.1000 hurdat_atl main 63 63 O_____________ hurdat_atl AL071967 19.5000 -17.1000 TD -1 10 246
1967216N20343 1967 65 NA NA NOT_NAMED 1967-08-03 15:00:00 TS 19.2973 -17.5896 main 115 115 P_____________ AL071967 19.2973 -17.5896 TD -1 12 244
1967216N20343 1967 65 NA NA NOT_NAMED 1967-08-03 18:00:00 TS 19.0000 -18.2000 hurdat_atl main 184 184 O_____________ hurdat_atl AL071967 19.0000 -18.2000 TD -1 15 241
1967216N20343 1967 65 NA NA NOT_NAMED 1967-08-03 21:00:00 TS 18.5579 -18.9932 main 277 277 P_____________ AL071967 18.5579 -18.9932 TD -1 18 239
1967216N20343 1967 65 NA NA NOT_NAMED 1967-08-04 00:00:00 TS 18.1000 -19.8000 hurdat_atl main 376 376 O_____________ hurdat_atl AL071967 18.1000 -19.8000 TD -1 16 241
1967216N20343 1967 65 NA NA NOT_NAMED 1967-08-04 03:00:00 TS 17.8069 -20.4215 main 445 445 P_____________ AL071967 17.8069 -20.4215 TD -1 13 242
1967216N20343 1967 65 NA NA NOT_NAMED 1967-08-04 06:00:00 TS 17.5000 -21.0000 hurdat_atl main 487 487 O_____________ hurdat_atl AL071967 17.5000 -21.0000 TD -1 14 237
1967216N20343 1967 65 NA NA NOT_NAMED 1967-08-04 09:00:00 TS 17.0596 -21.6196 main 514 514 P_____________ AL071967 17.0596 -21.6196 TD -1 16 231
1967216N20343 1967 65 NA NA NOT_NAMED 1967-08-04 12:00:00 TS 16.5000 -22.3000 hurdat_atl main 552 552 O_____________ hurdat_atl AL071967 16.5000 -22.3000 TD -1 19 229
1967216N20343 1967 65 NA NA NOT_NAMED 1967-08-04 15:00:00 TS 15.8078 -23.1156 main 613 613 P_____________ AL071967 15.8078 -23.1156 TD -1 21 228
1967216N20343 1967 65 NA NA NOT_NAMED 1967-08-04 18:00:00 TS 15.1000 -23.9000 hurdat_atl main 689 689 O_____________ hurdat_atl AL071967 15.1000 -23.9000 TD -1 18 225
1967216N20343 1967 65 NA NA NOT_NAMED 1967-08-04 21:00:00 TS 14.5268 -24.4489 main 743 743 P_____________ AL071967 14.5268 -24.4489 TD -1 15 224
1967216N20343 1967 65 NA NA NOT_NAMED 1967-08-05 00:00:00 TS 14.0000 -25.0000 hurdat_atl main 812 812 O_____________ hurdat_atl AL071967 14.0000 -25.0000 TD -1 17 230
1967216N20343 1967 65 NA NA NOT_NAMED 1967-08-05 03:00:00 TS 13.4353 -25.7852 main 907 907 P_____________ AL071967 13.4353 -25.7852 TD -1 19 235
1967216N20343 1967 65 NA NA NOT_NAMED 1967-08-05 06:00:00 TS 12.9000 -26.6000 hurdat_atl main 1003 1003 O_____________ hurdat_atl AL071967 12.9000 -26.6000 TD -1 18 235
1967216N20343 1967 65 NA NA NOT_NAMED 1967-08-05 09:00:00 TS 12.4048 -27.2948 main 1090 1090 P_____________ AL071967 12.4048 -27.2948 TD -1 16 235
1967216N20343 1967 65 NA NA NOT_NAMED 1967-08-05 12:00:00 TS 12.0000 -27.9000 hurdat_atl main 1165 1165 O_____________ hurdat_atl AL071967 12.0000 -27.9000 TD -1 13 238
1967216N20343 1967 65 NA NA NOT_NAMED 1967-08-05 15:00:00 TS 11.7197 -28.4146 main 1227 1227 P_____________ AL071967 11.7197 -28.4146 TD -1 11 243
1967216N20343 1967 65 NA NA NOT_NAMED 1967-08-05 18:00:00 TS 11.5000 -28.9000 hurdat_atl main 1286 1286 O_____________ hurdat_atl AL071967 11.5000 -28.9000 TD -1 11 242
1967216N20343 1967 65 NA NA NOT_NAMED 1967-08-05 21:00:00 TS 11.1899 -29.4428 main 1348 1348 P_____________ AL071967 11.1899 -29.4428 TD -1 12 245
1967216N20343 1967 65 NA NA NOT_NAMED 1967-08-06 00:00:00 TS 11.0000 -30.0000 hurdat_atl main 1417 1417 O_____________ hurdat_atl AL071967 11.0000 -30.0000 TD -1 11 271
1967216N20343 1967 65 NA NA NOT_NAMED 1967-08-06 03:00:00 TS 11.2100 -30.5641 main 1473 1473 P_____________ AL071967 11.2100 -30.5641 TD -1 11 286
1967216N20343 1967 65 NA NA NOT_NAMED 1967-08-06 06:00:00 TS 11.3000 -31.1000 hurdat_atl main 1522 1522 O_____________ hurdat_atl AL071967 11.3000 -31.1000 TD -1 11 249
1967216N20343 1967 65 NA NA NOT_NAMED 1967-08-06 09:00:00 TS 10.8301 -31.5710 main 1590 1590 P_____________ AL071967 10.8301 -31.5710 TD -1 16 214
1967216N20343 1967 65 NA NA NOT_NAMED 1967-08-06 12:00:00 TS 10.0000 -32.0000 hurdat_atl main 1660 O_____________ hurdat_atl AL071967 10.0000 -32.0000 TD -1 19 207

About IBTrACS Database

This database is a web-friendly format of International Best Track Archive for Climate Stewardship (IBTrACS), a global best track data archive curated by NOAA dating back to 1842.

Updated: 2021-10-08